createdAt,value
2022-09-17T00:01:31.275Z,97.40
2022-09-17T00:04:04.163Z,97.80
2022-09-17T00:06:35.513Z,97.40
2022-09-17T00:09:04.859Z,97.40
2022-09-17T00:11:35.093Z,97.40
2022-09-17T00:14:04.428Z,97.40
2022-09-17T00:16:34.744Z,97.40
2022-09-17T00:19:05.593Z,97.40
2022-09-17T00:21:35.235Z,97.70
2022-09-17T00:24:07.376Z,97.30
2022-09-17T00:26:36.837Z,97.50
2022-09-17T00:29:06.055Z,97.60
2022-09-17T00:31:34.578Z,97.70
2022-09-17T00:34:04.819Z,97.80
2022-09-17T00:36:35.508Z,97.80
2022-09-17T00:39:04.421Z,97.90
2022-09-17T00:41:34.484Z,97.90
2022-09-17T00:44:23.831Z,97.90
2022-09-17T00:46:53.597Z,98.10
2022-09-17T00:49:27.745Z,98.10
2022-09-17T00:52:00.612Z,98.10
2022-09-17T00:54:30.105Z,98.00
2022-09-17T00:56:59.286Z,98.30
2022-09-17T00:59:27.876Z,98.30
2022-09-17T01:01:56.113Z,98.30
2022-09-17T01:04:26.445Z,98.40
2022-09-17T01:07:04.043Z,98.50
2022-09-17T01:09:43.615Z,98.50
2022-09-17T01:12:32.545Z,98.40
2022-09-17T01:15:11.036Z,98.40
2022-09-17T01:17:44.604Z,98.40
2022-09-17T01:21:00.089Z,98.50
2022-09-17T01:23:42.674Z,98.30
2022-09-17T01:26:35.198Z,98.30
2022-09-17T01:29:12.906Z,98.50
2022-09-17T01:31:49.602Z,98.50
2022-09-17T01:34:27.066Z,98.50
2022-09-17T01:37:03.592Z,98.50
2022-09-17T01:39:44.010Z,98.40
2022-09-17T01:42:21.213Z,98.30
2022-09-17T01:44:57.662Z,98.30
2022-09-17T01:47:32.855Z,98.60
2022-09-17T01:50:06.222Z,98.40
2022-09-17T01:52:37.432Z,98.40
2022-09-17T01:55:08.705Z,98.40
2022-09-17T01:57:41.667Z,98.40
2022-09-17T02:00:12.759Z,98.40
2022-09-17T02:02:47.689Z,98.40
2022-09-17T02:05:20.464Z,98.40
2022-09-17T02:07:59.543Z,98.40
2022-09-17T02:10:31.343Z,98.40
2022-09-17T02:13:03.614Z,98.50
2022-09-17T02:15:36.555Z,98.50
2022-09-17T02:18:11.881Z,98.50
2022-09-17T02:20:44.597Z,98.90
2022-09-17T02:23:17.825Z,98.50
2022-09-17T02:25:51.288Z,98.90
2022-09-17T02:28:27.247Z,98.60
2022-09-17T02:30:55.773Z,98.60
2022-09-17T02:33:26.197Z,98.70
2022-09-17T02:35:54.337Z,98.70
2022-09-17T02:38:27.847Z,98.70
2022-09-17T02:41:05.836Z,98.70
2022-09-17T02:43:43.358Z,98.70
2022-09-17T02:46:27.585Z,98.60
2022-09-17T02:49:16.790Z,98.50
2022-09-17T02:51:54.694Z,98.40
2022-09-17T02:54:30.562Z,98.50
2022-09-17T02:57:08.779Z,98.50
2022-09-17T02:59:43.099Z,98.40
2022-09-17T03:02:23.729Z,98.40
2022-09-17T03:04:55.185Z,98.40
2022-09-17T03:07:24.633Z,98.30
2022-09-17T03:09:52.776Z,98.20
2022-09-17T03:12:20.878Z,98.20
2022-09-17T03:14:49.090Z,98.20
2022-09-17T03:17:17.096Z,98.10
2022-09-17T03:19:45.154Z,98.00
2022-09-17T03:22:14.610Z,98.00
2022-09-17T03:24:42.616Z,98.00
2022-09-17T03:27:10.618Z,98.00
2022-09-17T03:29:38.645Z,97.90
2022-09-17T03:32:07.483Z,97.90
2022-09-17T03:34:35.721Z,97.90
2022-09-17T03:37:03.769Z,97.80
2022-09-17T03:39:33.152Z,97.80
2022-09-17T03:42:01.176Z,97.80
2022-09-17T03:44:29.303Z,97.80
2022-09-17T03:46:57.703Z,97.80
2022-09-17T03:49:25.725Z,97.80
2022-09-17T03:51:54.248Z,97.90
2022-09-17T03:54:22.944Z,97.90
2022-09-17T03:56:52.361Z,97.90
2022-09-17T03:59:20.406Z,98.00
2022-09-17T04:01:48.521Z,98.00
2022-09-17T04:04:16.661Z,98.00
2022-09-17T04:06:44.786Z,98.00
2022-09-17T04:09:12.810Z,98.00
2022-09-17T04:11:40.811Z,98.10
2022-09-17T04:14:10.374Z,98.00
2022-09-17T04:16:38.383Z,98.10
2022-09-17T04:19:06.526Z,98.10
2022-09-17T04:21:34.733Z,98.20
2022-09-17T04:24:03.127Z,98.20
2022-09-17T04:26:31.182Z,98.10
2022-09-17T04:28:59.262Z,98.10
2022-09-17T04:31:28.725Z,98.50
2022-09-17T04:33:56.807Z,98.10
2022-09-17T04:36:24.889Z,98.20
2022-09-17T04:38:52.886Z,98.20
2022-09-17T04:41:20.967Z,98.10
2022-09-17T04:43:48.977Z,98.10
2022-09-17T04:46:17.978Z,98.10
2022-09-17T04:48:47.445Z,98.20
2022-09-17T04:51:15.493Z,98.30
2022-09-17T04:53:43.815Z,98.20
2022-09-17T04:56:11.930Z,98.20
2022-09-17T04:58:40.346Z,98.20
2022-09-17T05:01:08.394Z,98.50
2022-09-17T05:03:36.414Z,98.10
2022-09-17T05:06:06.156Z,98.10
2022-09-17T05:08:34.141Z,97.90
2022-09-17T05:11:02.909Z,97.90
2022-09-17T05:13:31.061Z,97.80
2022-09-17T05:15:59.249Z,97.80
2022-09-17T05:18:27.465Z,97.80
2022-09-17T05:20:55.519Z,97.80
2022-09-17T05:23:24.906Z,97.80
2022-09-17T05:25:53.030Z,97.70
2022-09-17T05:28:21.132Z,97.70
2022-09-17T05:30:49.210Z,97.60
2022-09-17T05:33:17.210Z,97.60
2022-09-17T05:35:45.388Z,97.60
2022-09-17T05:38:13.819Z,97.60
2022-09-17T05:40:43.197Z,97.60
2022-09-17T05:43:11.677Z,97.60
2022-09-17T05:45:39.949Z,97.50
2022-09-17T05:48:11.202Z,97.50
2022-09-17T05:50:39.494Z,97.50
2022-09-17T05:53:09.163Z,97.40
2022-09-17T05:55:37.246Z,97.40
2022-09-17T05:58:12.772Z,97.30
2022-09-17T06:00:41.847Z,97.20
2022-09-17T06:03:11.685Z,97.10
2022-09-17T06:05:40.070Z,97.10
2022-09-17T06:08:08.155Z,97.10
2022-09-17T06:10:37.466Z,97.20
2022-09-17T06:13:08.710Z,97.20
2022-09-17T06:15:38.103Z,97.30
2022-09-17T06:18:06.166Z,97.20
2022-09-17T06:20:34.389Z,97.30
2022-09-17T06:23:02.396Z,97.20
2022-09-17T06:25:31.818Z,97.40
2022-09-17T06:27:59.826Z,97.40
2022-09-17T06:30:28.074Z,97.50
2022-09-17T06:33:00.409Z,97.50
2022-09-17T06:35:28.482Z,97.90
2022-09-17T06:37:56.454Z,97.50
2022-09-17T06:40:24.706Z,97.50
2022-09-17T06:42:58.640Z,97.50
2022-09-17T06:45:26.819Z,97.50
2022-09-17T06:47:55.103Z,97.60
2022-09-17T06:50:25.403Z,97.60
2022-09-17T06:52:55.120Z,97.70
2022-09-17T06:55:23.217Z,97.70
2022-09-17T06:57:51.199Z,97.70
2022-09-17T07:00:21.387Z,97.70
2022-09-17T07:02:57.759Z,97.70
2022-09-17T07:05:28.249Z,97.80
2022-09-17T07:07:56.723Z,97.80
2022-09-17T07:10:24.950Z,97.90
2022-09-17T07:12:53.884Z,97.90
2022-09-17T07:15:25.086Z,97.90
2022-09-17T07:17:53.367Z,97.90
2022-09-17T07:20:23.835Z,97.80
2022-09-17T07:22:59.589Z,97.80
2022-09-17T07:25:27.925Z,97.80
2022-09-17T07:27:56.623Z,97.80
2022-09-17T07:30:24.958Z,97.80
2022-09-17T07:32:53.213Z,97.70
2022-09-17T07:35:21.326Z,97.50
2022-09-17T07:37:49.390Z,97.50
2022-09-17T07:40:19.078Z,97.40
2022-09-17T07:42:48.786Z,97.30
2022-09-17T07:45:16.959Z,97.30
2022-09-17T07:47:45.074Z,97.10
2022-09-17T07:50:13.229Z,97.00
2022-09-17T07:52:47.329Z,96.80
2022-09-17T07:55:15.951Z,96.70
2022-09-17T07:57:45.374Z,96.60
2022-09-17T08:00:15.196Z,96.60
2022-09-17T08:02:43.349Z,96.50
2022-09-17T08:05:11.498Z,96.50
2022-09-17T08:07:39.548Z,96.20
2022-09-17T08:10:08.132Z,96.00
2022-09-17T08:12:36.254Z,95.90
2022-09-17T08:15:06.162Z,95.80
2022-09-17T08:17:34.342Z,95.70
2022-09-17T08:20:03.464Z,95.80
2022-09-17T08:22:31.751Z,95.40
2022-09-17T08:24:59.733Z,94.90
2022-09-17T08:27:27.756Z,94.70
2022-09-17T08:29:55.742Z,94.40
2022-09-17T08:32:25.261Z,94.50
2022-09-17T08:34:58.000Z,94.40
2022-09-17T08:37:27.482Z,94.40
2022-09-17T08:39:55.596Z,94.70
2022-09-17T08:42:36.225Z,95.20
2022-09-17T08:45:06.210Z,95.50
2022-09-17T08:47:38.534Z,95.90
2022-09-17T08:50:08.734Z,96.00
2022-09-17T08:53:06.827Z,95.90
2022-09-17T08:55:41.131Z,95.80
2022-09-17T08:58:35.297Z,95.70
2022-09-17T09:01:17.050Z,95.30
2022-09-17T09:04:06.221Z,94.90
2022-09-17T09:06:36.884Z,94.50
2022-09-17T09:09:11.207Z,94.60
2022-09-17T09:11:40.713Z,94.50
2022-09-17T09:14:16.559Z,94.20
2022-09-17T09:16:46.226Z,94.20
2022-09-17T09:19:22.180Z,94.00
2022-09-17T09:22:03.731Z,94.00
2022-09-17T09:24:41.974Z,93.90
2022-09-17T09:27:18.954Z,94.40
2022-09-17T09:30:01.951Z,94.10
2022-09-17T09:32:46.604Z,93.60
2022-09-17T09:35:18.462Z,93.50
2022-09-17T09:37:52.746Z,93.20
2022-09-17T09:40:36.927Z,93.30
2022-09-17T09:43:15.957Z,93.30
2022-09-17T09:46:01.293Z,93.20
2022-09-17T09:48:39.604Z,92.90
2022-09-17T09:51:21.746Z,92.50
2022-09-17T09:54:04.370Z,92.80
2022-09-17T09:56:49.165Z,92.50
2022-09-17T09:59:17.205Z,92.90
2022-09-17T10:01:46.361Z,92.40
2022-09-17T10:04:20.636Z,92.00
2022-09-17T10:06:53.193Z,91.90
2022-09-17T10:09:22.471Z,92.10
2022-09-17T10:12:02.704Z,92.20
2022-09-17T10:14:32.308Z,91.80
2022-09-17T10:17:29.213Z,91.90
2022-09-17T10:20:18.293Z,92.20
2022-09-17T10:22:51.604Z,92.80
2022-09-17T10:25:29.748Z,93.30
2022-09-17T10:27:58.739Z,93.40
2022-09-17T10:30:27.581Z,93.50
2022-09-17T10:33:19.651Z,93.70
2022-09-17T10:36:02.875Z,93.70
2022-09-17T10:38:34.861Z,93.80
2022-09-17T10:41:17.982Z,94.00
2022-09-17T10:43:46.612Z,94.50
2022-09-17T10:46:18.374Z,94.80
2022-09-17T10:48:55.251Z,95.20
2022-09-17T10:51:25.631Z,95.20
2022-09-17T10:54:07.175Z,95.20
2022-09-17T10:56:37.665Z,95.10
2022-09-17T10:59:37.500Z,95.00
2022-09-17T11:02:17.685Z,94.70
2022-09-17T11:04:53.359Z,94.70
2022-09-17T11:07:34.177Z,94.40
2022-09-17T11:10:12.803Z,94.40
2022-09-17T11:13:06.676Z,93.90
2022-09-17T11:15:53.255Z,93.20
2022-09-17T11:18:33.885Z,93.10
2022-09-17T11:21:29.567Z,92.90
2022-09-17T11:24:25.013Z,92.80
2022-09-17T11:27:05.893Z,92.60
2022-09-17T11:29:46.451Z,92.40
2022-09-17T11:32:29.665Z,92.30
2022-09-17T11:35:03.827Z,92.40
2022-09-17T11:37:34.603Z,92.20
2022-09-17T11:40:10.039Z,91.30
2022-09-17T11:42:45.488Z,91.30
2022-09-17T11:45:18.809Z,91.20
2022-09-17T11:47:52.242Z,91.20
2022-09-17T11:50:25.185Z,90.60
2022-09-17T11:53:05.834Z,87.50
2022-09-17T11:55:39.522Z,85.10
2022-09-17T11:58:15.590Z,84.20
2022-09-17T12:00:49.946Z,83.50
2022-09-17T12:03:26.116Z,82.60
2022-09-17T12:05:59.179Z,80.30
2022-09-17T12:08:34.856Z,79.50
2022-09-17T12:11:08.444Z,80.40
2022-09-17T12:13:45.149Z,80.60
2022-09-17T12:16:22.180Z,80.40
2022-09-17T12:18:57.983Z,79.80
2022-09-17T12:21:31.700Z,80.40
2022-09-17T12:24:08.455Z,81.20
2022-09-17T12:26:52.627Z,81.30
2022-09-17T12:29:39.428Z,81.80
2022-09-17T12:32:26.710Z,83.90
2022-09-17T12:35:01.473Z,83.80
2022-09-17T12:37:38.902Z,85.30
2022-09-17T12:40:20.450Z,84.70
2022-09-17T12:43:03.017Z,84.50
2022-09-17T12:45:50.732Z,84.20
2022-09-17T12:48:54.259Z,84.60
2022-09-17T12:51:40.292Z,84.40
2022-09-17T12:54:18.376Z,85.40
2022-09-17T12:56:58.655Z,86.30
2022-09-17T12:59:31.638Z,87.80
2022-09-17T13:02:05.578Z,87.60
2022-09-17T13:05:01.969Z,88.00
2022-09-17T13:07:54.552Z,88.30
2022-09-17T13:11:07.558Z,88.50
2022-09-17T13:13:47.046Z,88.80
2022-09-17T13:16:22.803Z,88.60
2022-09-17T13:19:15.698Z,88.80
2022-09-17T13:21:54.727Z,90.00
2022-09-17T13:24:25.602Z,89.90
2022-09-17T13:26:55.415Z,90.40
2022-09-17T13:30:01.341Z,90.90
2022-09-17T13:32:52.363Z,91.20
2022-09-17T13:35:52.431Z,91.80
2022-09-17T13:38:24.012Z,92.30
2022-09-17T13:40:53.357Z,92.60
2022-09-17T13:43:27.821Z,92.40
2022-09-17T13:46:12.807Z,91.70
2022-09-17T13:48:51.465Z,91.60
2022-09-17T13:51:54.721Z,91.80
2022-09-17T13:54:26.165Z,91.60
2022-09-17T13:57:10.539Z,91.40
2022-09-17T13:59:39.217Z,91.00
2022-09-17T14:02:36.451Z,90.90
2022-09-17T14:05:35.738Z,90.50
2022-09-17T14:08:29.278Z,91.30
2022-09-17T14:11:05.869Z,91.30
2022-09-17T14:13:42.890Z,91.60
2022-09-17T14:16:46.147Z,91.60
2022-09-17T14:19:38.292Z,91.50
2022-09-17T14:22:17.706Z,91.80
2022-09-17T14:24:53.448Z,91.90
2022-09-17T14:27:46.183Z,92.10
2022-09-17T14:30:17.083Z,92.00
2022-09-17T14:33:00.348Z,92.10
2022-09-17T14:35:35.169Z,91.30
2022-09-17T14:38:11.390Z,91.00
2022-09-17T14:40:46.530Z,90.20
2022-09-17T14:43:22.326Z,87.80
2022-09-17T14:45:53.163Z,87.00
2022-09-17T14:48:32.744Z,86.30
2022-09-17T14:51:24.845Z,85.80
2022-09-17T14:54:10.135Z,85.00
2022-09-17T14:56:49.717Z,84.10
2022-09-17T14:59:24.919Z,83.20
2022-09-17T15:01:53.050Z,83.10
2022-09-17T15:04:23.603Z,83.40
2022-09-17T15:06:51.763Z,82.80
2022-09-17T15:09:26.258Z,81.70
2022-09-17T15:11:59.419Z,81.40
2022-09-17T15:14:30.357Z,81.50
2022-09-17T15:17:00.553Z,81.60
2022-09-17T15:19:33.834Z,81.70
2022-09-17T15:22:06.443Z,81.80
2022-09-17T15:24:42.528Z,82.10
2022-09-17T15:27:15.375Z,82.00
2022-09-17T15:29:46.947Z,81.80
2022-09-17T15:32:15.535Z,81.20
2022-09-17T15:34:43.770Z,81.10
2022-09-17T15:37:19.507Z,82.00
2022-09-17T15:39:52.197Z,83.90
2022-09-17T15:42:26.935Z,86.00
2022-09-17T15:45:07.743Z,87.20
2022-09-17T15:47:51.341Z,87.50
2022-09-17T15:50:20.877Z,87.70
2022-09-17T15:52:49.329Z,87.80
2022-09-17T15:55:36.850Z,87.50
2022-09-17T15:58:20.551Z,87.00
2022-09-17T16:00:48.828Z,87.40
2022-09-17T16:03:53.179Z,87.20
2022-09-17T16:06:39.799Z,87.30
2022-09-17T16:09:43.874Z,87.20
2022-09-17T16:12:14.728Z,86.20
2022-09-17T16:14:48.476Z,86.10
2022-09-17T16:17:35.685Z,86.10
2022-09-17T16:20:10.374Z,85.40
2022-09-17T16:22:38.470Z,85.00
2022-09-17T16:25:07.662Z,84.50
2022-09-17T16:27:45.600Z,84.40
2022-09-17T16:30:18.661Z,83.90
2022-09-17T16:32:47.177Z,83.70
2022-09-17T16:35:17.538Z,84.60
2022-09-17T16:37:46.055Z,84.10
2022-09-17T16:40:14.575Z,84.40
2022-09-17T16:42:42.691Z,84.70
2022-09-17T16:45:11.530Z,84.70
2022-09-17T16:47:42.973Z,84.80
2022-09-17T16:50:13.908Z,85.20
2022-09-17T16:52:41.922Z,84.90
2022-09-17T16:55:11.004Z,84.90
2022-09-17T16:57:39.034Z,85.00
2022-09-17T17:00:11.486Z,85.00
2022-09-17T17:02:40.931Z,84.90
2022-09-17T17:05:10.599Z,84.70
2022-09-17T17:07:39.143Z,84.50
2022-09-17T17:10:10.005Z,84.50
2022-09-17T17:12:38.750Z,84.20
2022-09-17T17:15:08.003Z,83.30
2022-09-17T17:17:36.753Z,81.90
2022-09-17T17:20:09.548Z,81.30
2022-09-17T17:22:38.030Z,81.40
2022-09-17T17:25:07.002Z,82.00
2022-09-17T17:27:35.737Z,83.10
2022-09-17T17:30:06.570Z,85.00
2022-09-17T17:32:34.666Z,86.50
2022-09-17T17:35:02.737Z,88.80
2022-09-17T17:37:32.068Z,90.50
2022-09-17T17:40:00.294Z,90.80
2022-09-17T17:42:35.659Z,91.70
2022-09-17T17:45:03.764Z,91.70
2022-09-17T17:47:31.746Z,91.90
2022-09-17T17:49:59.807Z,92.00
2022-09-17T17:52:27.949Z,92.10
2022-09-17T17:54:57.285Z,92.50
2022-09-17T17:57:25.330Z,92.60
2022-09-17T17:59:53.300Z,92.90
2022-09-17T18:02:21.445Z,93.10
2022-09-17T18:04:49.556Z,93.30
2022-09-17T18:07:17.554Z,93.40
2022-09-17T18:09:46.205Z,93.30
2022-09-17T18:12:15.793Z,93.50
2022-09-17T18:14:43.816Z,93.60
2022-09-17T18:17:11.793Z,93.70
2022-09-17T18:19:39.834Z,93.80
2022-09-17T18:22:07.829Z,93.90
2022-09-17T18:24:35.808Z,94.10
2022-09-17T18:27:03.910Z,94.30
2022-09-17T18:29:33.224Z,94.50
2022-09-17T18:32:01.325Z,94.60
2022-09-17T18:34:29.476Z,94.80
2022-09-17T18:36:57.442Z,95.00
2022-09-17T18:39:57.535Z,95.20
2022-09-17T18:42:14.243Z,95.30
2022-09-17T18:44:43.762Z,95.50
2022-09-17T18:47:11.792Z,95.60
2022-09-17T18:49:39.806Z,95.70
2022-09-17T18:52:07.803Z,95.90
2022-09-17T18:54:35.861Z,96.00
2022-09-17T18:57:07.080Z,96.30
2022-09-17T18:59:36.247Z,96.50
2022-09-17T19:02:06.699Z,97.00
2022-09-17T19:04:34.798Z,96.90
2022-09-17T19:07:04.014Z,97.00
2022-09-17T19:09:31.975Z,97.20
2022-09-17T19:12:00.022Z,97.30
2022-09-17T19:14:28.238Z,97.40
2022-09-17T19:16:56.328Z,97.40
2022-09-17T19:19:25.722Z,97.60
2022-09-17T19:21:53.735Z,97.70
2022-09-17T19:24:21.727Z,97.80
2022-09-17T19:26:51.083Z,97.90
2022-09-17T19:29:19.387Z,98.00
2022-09-17T19:31:47.386Z,98.10
2022-09-17T19:34:15.364Z,98.20
2022-09-17T19:36:44.836Z,98.30
2022-09-17T19:39:12.784Z,98.40
2022-09-17T19:41:40.768Z,98.50
2022-09-17T19:44:10.196Z,98.50
2022-09-17T19:46:38.384Z,98.60
2022-09-17T19:49:06.755Z,98.70
2022-09-17T19:51:35.287Z,98.70
2022-09-17T19:54:06.808Z,98.80
2022-09-17T19:56:34.932Z,98.90
2022-09-17T19:59:02.926Z,99.00
2022-09-17T20:01:31.550Z,99.10
2022-09-17T20:03:59.722Z,99.10
2022-09-17T20:06:27.719Z,99.10
2022-09-17T20:08:56.194Z,99.20
2022-09-17T20:11:26.768Z,99.20
2022-09-17T20:13:58.906Z,99.30
2022-09-17T20:16:27.411Z,99.30
2022-09-17T20:18:55.713Z,99.40
2022-09-17T20:21:25.939Z,99.40
2022-09-17T20:23:54.208Z,99.50
2022-09-17T20:26:23.069Z,99.60
2022-09-17T20:28:53.169Z,99.60
2022-09-17T20:31:22.923Z,99.60
2022-09-17T20:33:54.415Z,99.70
2022-09-17T20:36:24.210Z,99.70
2022-09-17T20:41:42.329Z,99.70
2022-09-17T20:44:11.798Z,99.70
2022-09-17T20:46:40.082Z,99.70
2022-09-17T20:49:08.294Z,99.70
2022-09-17T20:51:36.341Z,99.70
2022-09-17T20:54:04.995Z,99.70
2022-09-17T20:56:34.779Z,99.70
2022-09-17T20:59:13.060Z,99.70
2022-09-17T21:01:44.976Z,99.70
2022-09-17T21:04:15.629Z,99.70
2022-09-17T21:06:45.113Z,99.70
2022-09-17T21:09:16.751Z,99.80
2022-09-17T21:11:45.824Z,99.80
2022-09-17T21:14:15.622Z,99.70
2022-09-17T21:16:45.921Z,99.70
2022-09-17T21:19:16.178Z,99.70
2022-09-17T21:21:44.798Z,99.80
2022-09-17T21:24:12.847Z,99.80
2022-09-17T21:26:40.931Z,99.80
2022-09-17T21:29:09.098Z,99.90
2022-09-17T21:31:38.626Z,99.90
2022-09-17T21:34:09.274Z,99.90
2022-09-17T21:36:39.452Z,99.90
2022-09-17T21:39:11.642Z,99.90
2022-09-17T21:41:42.639Z,99.90
2022-09-17T21:44:11.183Z,99.90
2022-09-17T21:46:40.906Z,99.90
2022-09-17T21:49:11.140Z,99.90
2022-09-17T21:51:40.225Z,99.90
2022-09-17T21:54:10.308Z,99.90
2022-09-17T21:56:39.078Z,99.90
2022-09-17T21:59:08.972Z,99.80
2022-09-17T22:01:40.266Z,99.90
2022-09-17T22:04:11.315Z,99.90
2022-09-17T22:06:39.837Z,99.90
2022-09-17T22:09:09.945Z,99.80
2022-09-17T22:11:39.053Z,99.80
2022-09-17T22:14:11.015Z,99.90
2022-09-17T22:16:41.072Z,99.90
2022-09-17T22:19:12.038Z,99.90
2022-09-17T22:21:44.645Z,99.90
2022-09-17T22:24:13.079Z,99.90
2022-09-17T22:26:43.477Z,99.90
2022-09-17T22:29:13.983Z,99.90
2022-09-17T22:31:42.126Z,99.90
2022-09-17T22:34:13.178Z,99.90
2022-09-17T22:36:43.532Z,99.90
2022-09-17T22:39:11.702Z,99.90
2022-09-17T22:41:44.326Z,99.90
2022-09-17T22:44:15.105Z,99.90
2022-09-17T22:46:43.978Z,99.90
2022-09-17T22:49:13.864Z,99.90
2022-09-17T22:51:42.799Z,99.90
2022-09-17T22:54:13.426Z,99.90
2022-09-17T22:56:42.059Z,99.90
2022-09-17T22:59:10.801Z,99.90
2022-09-17T23:01:40.595Z,99.90
2022-09-17T23:04:08.697Z,99.90
2022-09-17T23:06:39.980Z,99.90
2022-09-17T23:09:08.471Z,99.90
2022-09-17T23:11:38.789Z,99.90
2022-09-17T23:14:10.253Z,99.90
2022-09-17T23:16:40.295Z,99.90
2022-09-17T23:19:08.737Z,99.90
2022-09-17T23:21:38.874Z,99.90
2022-09-17T23:24:07.341Z,99.90
2022-09-17T23:26:35.672Z,99.90
2022-09-17T23:29:05.624Z,99.90
2022-09-17T23:31:35.747Z,99.90
2022-09-17T23:34:05.714Z,99.90
2022-09-17T23:36:35.382Z,99.90
2022-09-17T23:39:06.445Z,99.90
2022-09-17T23:41:36.838Z,99.90
2022-09-17T23:44:09.520Z,99.90
2022-09-17T23:46:42.065Z,99.90
2022-09-17T23:49:12.561Z,99.90
2022-09-17T23:51:40.735Z,99.90
2022-09-17T23:54:10.660Z,99.90
2022-09-17T23:56:38.775Z,99.90
2022-09-17T23:59:07.410Z,99.90
